Time;durP1;ratioP1;P1;durP2;ratioP2;P2;SDS_P1;SDS_P2;PMS_P1;PMS_P2;Temp;Humidity;BMP_temperature;BMP_pressure;BME280_temperature;BME280_humidity;BME280_pressure;Samples;Min_cycle;Max_cycle;Signal;HPM_P1;HPM_P2
2023/09/30 00:01:18;;;;;;;0.10;0.10;;;13.40;99.90;;;;;;5003231;28;20058;-76
2023/09/30 00:03:45;;;;;;;0.17;0.17;;;13.40;99.90;;;;;;5007891;28;20045;-74
2023/09/30 00:06:10;;;;;;;0.10;0.10;;;13.40;99.90;;;;;;5007709;28;20053;-74
2023/09/30 00:08:39;;;;;;;0.20;0.20;;;13.40;99.90;;;;;;5007845;28;20042;-74
2023/09/30 00:11:05;;;;;;;0.10;0.10;;;13.40;99.90;;;;;;5006260;28;20037;-74
2023/09/30 00:13:31;;;;;;;0.20;0.20;;;13.40;99.90;;;;;;5006545;28;20045;-74
2023/09/30 00:15:57;;;;;;;0.10;0.10;;;13.40;99.90;;;;;;5008056;28;20214;-74
2023/09/30 00:18:23;;;;;;;0.10;0.10;;;13.40;99.90;;;;;;5003068;28;20125;-74
2023/09/30 00:20:49;;;;;;;0.15;0.15;;;13.40;99.90;;;;;;5006254;28;20066;-74
2023/09/30 00:23:14;;;;;;;0.20;0.20;;;13.40;99.90;;;;;;5006197;28;20646;-74
2023/09/30 00:25:40;;;;;;;0.10;0.10;;;13.30;99.90;;;;;;5004850;28;20046;-74
2023/09/30 00:28:06;;;;;;;0.17;0.17;;;13.30;99.90;;;;;;4994310;28;20056;-74
2023/09/30 00:30:32;;;;;;;0.20;0.20;;;13.40;99.90;;;;;;5007959;28;20049;-74
2023/09/30 00:32:58;;;;;;;0.20;0.20;;;13.30;99.90;;;;;;5017133;28;20436;-74
2023/09/30 00:35:24;;;;;;;0.10;0.10;;;13.30;99.90;;;;;;5006719;28;20038;-74
2023/09/30 00:37:50;;;;;;;0.20;0.20;;;13.30;99.90;;;;;;4994992;28;20593;-74
2023/09/30 00:40:16;;;;;;;0.10;0.10;;;13.30;99.90;;;;;;5007127;28;20046;-74
2023/09/30 00:42:42;;;;;;;0.10;0.10;;;13.30;99.90;;;;;;5005050;28;20132;-74
2023/09/30 00:45:11;;;;;;;0.20;0.20;;;13.20;99.90;;;;;;5006253;28;20128;-74
2023/09/30 00:47:37;;;;;;;0.15;0.15;;;13.20;99.90;;;;;;5009163;28;20045;-74
2023/09/30 00:50:06;;;;;;;0.10;0.10;;;13.20;99.90;;;;;;5010594;28;20046;-74
2023/09/30 00:52:33;;;;;;;0.20;0.20;;;13.20;99.90;;;;;;5009887;28;20064;-74
2023/09/30 00:54:59;;;;;;;0.20;0.20;;;13.20;99.90;;;;;;5008945;28;20052;-74
2023/09/30 00:57:25;;;;;;;0.20;0.20;;;13.20;99.90;;;;;;5008402;28;20045;-74
2023/09/30 00:59:51;;;;;;;0.10;0.10;;;13.20;99.90;;;;;;5005466;28;20412;-74
2023/09/30 01:02:22;;;;;;;0.10;0.10;;;13.20;99.90;;;;;;5010285;28;20042;-74
2023/09/30 01:04:49;;;;;;;0.20;0.20;;;13.20;99.90;;;;;;5013761;28;20094;-74
2023/09/30 01:07:14;;;;;;;0.10;0.10;;;13.20;99.90;;;;;;5012575;28;20440;-74
2023/09/30 01:09:40;;;;;;;0.15;0.15;;;13.20;99.90;;;;;;5028009;28;20045;-73
2023/09/30 01:12:07;;;;;;;0.10;0.10;;;13.10;99.90;;;;;;5009491;28;20083;-73
2023/09/30 01:14:34;;;;;;;0.10;0.10;;;13.20;99.90;;;;;;5012899;28;20041;-73
2023/09/30 01:17:00;;;;;;;0.20;0.20;;;13.20;99.90;;;;;;5011911;28;20049;-74
2023/09/30 01:19:27;;;;;;;0.10;0.10;;;13.10;99.90;;;;;;5009428;28;20167;-73
2023/09/30 01:21:59;;;;;;;0.20;0.20;;;13.10;99.90;;;;;;5008494;28;20056;-73
2023/09/30 01:24:29;;;;;;;0.10;0.10;;;13.10;99.90;;;;;;5012857;28;20450;-73
2023/09/30 01:26:56;;;;;;;0.10;0.10;;;13.10;99.90;;;;;;5011227;28;20531;-73
2023/09/30 01:29:22;;;;;;;0.10;0.10;;;13.10;99.90;;;;;;5011330;28;20065;-74
2023/09/30 01:31:49;;;;;;;0.20;0.20;;;13.10;99.90;;;;;;5010045;28;20449;-73
2023/09/30 01:34:16;;;;;;;0.20;0.20;;;13.10;99.90;;;;;;5011792;28;20050;-74
2023/09/30 01:36:43;;;;;;;0.10;0.10;;;13.10;99.90;;;;;;5012311;28;20049;-74
2023/09/30 01:39:10;;;;;;;0.10;0.10;;;13.10;99.90;;;;;;5010911;28;20048;-74
2023/09/30 01:41:42;;;;;;;0.10;0.10;;;13.10;99.90;;;;;;5008764;28;20052;-73
2023/09/30 01:44:09;;;;;;;0.10;0.10;;;13.10;99.90;;;;;;5005921;28;20045;-74
2023/09/30 01:46:36;;;;;;;0.10;0.10;;;13.10;99.90;;;;;;5012200;28;20049;-74
2023/09/30 01:49:02;;;;;;;0.10;0.10;;;13.10;99.90;;;;;;5011034;28;20048;-74
2023/09/30 01:51:29;;;;;;;0.15;0.15;;;13.10;99.90;;;;;;5009786;28;20124;-74
2023/09/30 01:53:55;;;;;;;0.10;0.10;;;13.10;99.90;;;;;;5012076;28;20481;-76
2023/09/30 01:56:20;;;;;;;0.20;0.20;;;13.10;99.90;;;;;;5007964;28;20037;-74
2023/09/30 01:58:46;;;;;;;0.15;0.15;;;13.10;99.90;;;;;;5009236;28;20049;-74
2023/09/30 02:01:11;;;;;;;0.20;0.20;;;13.10;99.90;;;;;;5004736;28;20057;-75
2023/09/30 02:03:38;;;;;;;0.20;0.20;;;13.10;99.90;;;;;;5007382;28;20034;-74
2023/09/30 02:06:04;;;;;;;0.20;0.20;;;13.10;99.90;;;;;;5011133;28;20049;-75
2023/09/30 02:08:30;;;;;;;0.10;0.10;;;13.10;99.90;;;;;;5010735;28;20516;-74
2023/09/30 02:10:56;;;;;;;0.15;0.15;;;13.10;99.90;;;;;;5027968;28;20045;-75
2023/09/30 02:13:22;;;;;;;0.20;0.20;;;13.10;99.90;;;;;;5030513;28;20485;-75
2023/09/30 02:15:48;;;;;;;0.10;0.10;;;13.10;99.90;;;;;;5010186;28;20034;-74
2023/09/30 02:18:14;;;;;;;0.10;0.10;;;13.10;99.90;;;;;;5008063;28;20049;-75
2023/09/30 02:20:40;;;;;;;0.20;0.20;;;13.10;99.90;;;;;;5011071;28;20412;-75
2023/09/30 02:23:12;;;;;;;0.10;0.10;;;13.10;99.90;;;;;;5010293;28;20037;-74
2023/09/30 02:25:39;;;;;;;0.10;0.10;;;13.10;99.90;;;;;;5010691;28;20050;-74
2023/09/30 02:28:07;;;;;;;0.10;0.10;;;13.10;99.90;;;;;;5011632;28;20439;-75
2023/09/30 02:30:32;;;;;;;0.10;0.10;;;13.10;99.90;;;;;;5030725;28;20048;-75
2023/09/30 02:32:59;;;;;;;0.10;0.10;;;13.10;99.90;;;;;;5008941;28;20045;-75
2023/09/30 02:35:26;;;;;;;0.20;0.20;;;13.10;99.90;;;;;;5028960;28;20064;-75
2023/09/30 02:37:51;;;;;;;0.10;0.10;;;13.10;99.90;;;;;;5029686;28;20424;-75
2023/09/30 02:40:18;;;;;;;0.20;0.20;;;13.10;99.90;;;;;;5029293;28;20045;-75
2023/09/30 02:42:43;;;;;;;0.20;0.20;;;13.10;99.90;;;;;;5009220;28;20067;-74
2023/09/30 02:45:10;;;;;;;0.10;0.10;;;13.10;99.90;;;;;;5013306;28;20061;-74
2023/09/30 02:47:37;;;;;;;0.10;0.10;;;13.10;99.90;;;;;;5011486;28;20038;-74
2023/09/30 02:50:08;;;;;;;0.10;0.10;;;13.10;99.90;;;;;;5013582;28;20037;-74
2023/09/30 02:52:33;;;;;;;0.10;0.10;;;13.10;99.90;;;;;;5009608;28;20057;-74
2023/09/30 02:54:59;;;;;;;0.17;0.17;;;13.20;99.90;;;;;;5011866;28;20133;-75
2023/09/30 02:57:27;;;;;;;0.10;0.10;;;13.10;99.90;;;;;;5009245;28;20127;-75
2023/09/30 02:59:54;;;;;;;0.20;0.20;;;13.10;99.90;;;;;;5009378;28;20107;-74
2023/09/30 03:02:21;;;;;;;0.20;0.20;;;13.10;99.90;;;;;;5003269;28;20105;-74
2023/09/30 03:04:47;;;;;;;0.10;0.10;;;13.10;99.90;;;;;;5030059;28;20112;-74
2023/09/30 03:07:16;;;;;;;0.15;0.15;;;13.10;99.90;;;;;;5009103;28;20489;-74
2023/09/30 03:09:42;;;;;;;0.10;0.10;;;13.10;99.90;;;;;;5005046;28;20152;-75
2023/09/30 03:12:08;;;;;;;0.10;0.10;;;13.10;99.90;;;;;;5007527;28;20572;-75
2023/09/30 03:14:34;;;;;;;0.20;0.20;;;13.00;99.90;;;;;;5006982;28;20038;-74
2023/09/30 03:17:00;;;;;;;0.10;0.10;;;13.00;99.90;;;;;;5011542;28;20049;-74
2023/09/30 03:19:25;;;;;;;0.20;0.20;;;13.00;99.90;;;;;;5007913;28;20045;-74
2023/09/30 03:21:51;;;;;;;0.13;0.13;;;13.00;99.90;;;;;;5009709;28;20048;-74
2023/09/30 03:24:17;;;;;;;0.20;0.20;;;13.00;99.90;;;;;;5001472;28;20100;-75
2023/09/30 03:26:43;;;;;;;0.10;0.10;;;13.00;99.90;;;;;;5028582;28;20065;-74
2023/09/30 03:29:10;;;;;;;0.10;0.10;;;13.00;99.90;;;;;;5011730;28;20049;-75
2023/09/30 03:31:36;;;;;;;0.20;0.20;;;13.00;99.90;;;;;;5003878;28;20056;-74
2023/09/30 03:34:05;;;;;;;0.10;0.10;;;13.00;99.90;;;;;;5010172;28;20176;-74
2023/09/30 03:36:31;;;;;;;0.10;0.10;;;13.00;99.90;;;;;;5010386;28;20053;-74
2023/09/30 03:39:04;;;;;;;0.10;0.10;;;13.00;99.90;;;;;;5011755;28;20048;-74
2023/09/30 03:41:31;;;;;;;0.10;0.10;;;13.00;99.90;;;;;;5005872;28;20069;-75
2023/09/30 03:43:57;;;;;;;0.20;0.20;;;12.90;99.90;;;;;;5011108;28;20603;-74
2023/09/30 03:46:22;;;;;;;0.17;0.17;;;13.00;99.90;;;;;;5009572;28;20184;-74
2023/09/30 03:48:48;;;;;;;0.10;0.10;;;13.00;99.90;;;;;;5012563;28;20081;-74
2023/09/30 03:51:14;;;;;;;0.10;0.10;;;13.00;99.90;;;;;;5010729;28;20398;-74
2023/09/30 03:53:44;;;;;;;0.10;0.10;;;13.00;99.90;;;;;;5010944;28;20068;-74
2023/09/30 03:56:14;;;;;;;0.10;0.10;;;12.90;99.90;;;;;;5008908;28;20289;-74
2023/09/30 03:58:44;;;;;;;0.10;0.10;;;12.90;99.90;;;;;;5009280;28;20041;-74
2023/09/30 04:01:11;;;;;;;0.10;0.10;;;12.90;99.90;;;;;;5009520;28;20139;-74
2023/09/30 04:03:39;;;;;;;0.10;0.10;;;12.90;99.90;;;;;;5001405;28;20399;-74
2023/09/30 04:06:06;;;;;;;0.20;0.20;;;12.90;99.90;;;;;;5010175;28;20541;-74
2023/09/30 04:08:33;;;;;;;0.20;0.20;;;12.80;99.90;;;;;;5012168;28;20050;-74
2023/09/30 04:11:00;;;;;;;0.20;0.20;;;12.90;99.90;;;;;;5009995;28;20118;-74
2023/09/30 04:13:25;;;;;;;0.10;0.10;;;12.90;99.90;;;;;;5009695;28;20057;-74
2023/09/30 04:15:51;;;;;;;0.20;0.20;;;12.90;99.90;;;;;;5026436;28;20038;-75
2023/09/30 04:18:20;;;;;;;0.10;0.10;;;12.90;99.90;;;;;;5006836;28;20041;-75
2023/09/30 04:20:46;;;;;;;0.10;0.10;;;12.90;99.90;;;;;;5004513;28;20490;-74
2023/09/30 04:23:13;;;;;;;0.10;0.10;;;12.90;99.90;;;;;;5005797;28;20057;-74
2023/09/30 04:25:39;;;;;;;0.13;0.13;;;12.90;99.90;;;;;;5022030;28;20409;-75
2023/09/30 04:28:05;;;;;;;0.20;0.20;;;12.90;99.90;;;;;;5005177;28;20045;-75
2023/09/30 04:30:32;;;;;;;0.20;0.20;;;12.90;99.90;;;;;;5009669;28;20041;-75
2023/09/30 04:32:59;;;;;;;0.20;0.20;;;12.90;99.90;;;;;;5010627;28;20067;-75
2023/09/30 04:35:25;;;;;;;0.20;0.20;;;12.90;99.90;;;;;;5010556;28;20052;-74
2023/09/30 04:37:51;;;;;;;0.10;0.10;;;12.90;99.90;;;;;;5006168;28;20045;-74
2023/09/30 04:40:19;;;;;;;0.10;0.10;;;13.00;99.90;;;;;;5009906;28;20045;-74
2023/09/30 04:42:46;;;;;;;0.10;0.10;;;12.90;99.90;;;;;;5008846;28;20080;-74
2023/09/30 04:45:13;;;;;;;0.10;0.10;;;13.00;99.90;;;;;;5027243;28;20413;-74
2023/09/30 04:47:39;;;;;;;0.13;0.13;;;12.90;99.90;;;;;;5008440;28;20052;-75
2023/09/30 04:50:08;;;;;;;0.10;0.10;;;13.00;99.90;;;;;;5009032;28;20041;-75
2023/09/30 04:52:34;;;;;;;0.10;0.10;;;13.00;99.90;;;;;;5008614;28;20053;-74
2023/09/30 04:55:01;;;;;;;0.10;0.10;;;12.90;99.90;;;;;;5011831;28;20132;-74
2023/09/30 04:57:28;;;;;;;0.10;0.10;;;12.90;99.90;;;;;;4999466;28;20038;-74
2023/09/30 04:59:53;;;;;;;0.10;0.10;;;13.00;99.90;;;;;;5005183;28;20049;-74
2023/09/30 05:02:19;;;;;;;0.10;0.10;;;12.90;99.90;;;;;;5004133;28;20041;-74
2023/09/30 05:04:44;;;;;;;0.10;0.10;;;13.00;99.90;;;;;;5006838;28;20518;-74
2023/09/30 05:07:13;;;;;;;0.15;0.15;;;13.00;99.90;;;;;;5007697;28;20042;-75
2023/09/30 05:09:39;;;;;;;0.10;0.10;;;12.90;99.90;;;;;;5007663;28;20103;-74
2023/09/30 05:12:04;;;;;;;0.10;0.10;;;13.00;99.90;;;;;;5003417;28;20050;-74
2023/09/30 05:14:31;;;;;;;0.17;0.17;;;13.00;99.90;;;;;;5025566;28;20103;-74
2023/09/30 05:16:57;;;;;;;0.10;0.10;;;12.90;99.90;;;;;;5008457;28;20053;-74
2023/09/30 05:19:22;;;;;;;0.10;0.10;;;12.90;99.90;;;;;;5027781;28;20053;-74
2023/09/30 05:21:48;;;;;;;0.20;0.20;;;12.90;99.90;;;;;;5006903;28;20103;-75
2023/09/30 05:24:14;;;;;;;0.10;0.10;;;12.90;99.90;;;;;;5007372;28;20049;-75
2023/09/30 05:26:40;;;;;;;0.20;0.20;;;12.90;99.90;;;;;;5004820;28;20037;-74
2023/09/30 05:29:07;;;;;;;0.10;0.10;;;12.90;99.90;;;;;;5004159;28;20037;-74
2023/09/30 05:31:33;;;;;;;0.10;0.10;;;12.80;99.90;;;;;;5008741;28;20444;-74
2023/09/30 05:33:58;;;;;;;0.10;0.10;;;12.90;99.90;;;;;;5005421;28;20046;-74
2023/09/30 05:36:24;;;;;;;0.10;0.10;;;12.90;99.90;;;;;;4999758;28;20092;-74
2023/09/30 05:38:50;;;;;;;0.10;0.10;;;12.80;99.90;;;;;;5010263;28;20045;-74
2023/09/30 05:41:16;;;;;;;0.10;0.10;;;12.90;99.90;;;;;;5008438;28;20064;-74
2023/09/30 05:43:43;;;;;;;0.10;0.10;;;12.90;99.90;;;;;;5012329;28;20132;-74
2023/09/30 05:46:09;;;;;;;0.15;0.15;;;12.90;99.90;;;;;;5011124;28;20053;-74
2023/09/30 05:48:35;;;;;;;0.20;0.20;;;12.90;99.90;;;;;;4999657;28;20053;-75
2023/09/30 05:51:01;;;;;;;0.10;0.10;;;12.90;99.90;;;;;;5029962;28;20489;-74
2023/09/30 05:53:28;;;;;;;0.10;0.10;;;12.90;99.90;;;;;;5011926;28;20093;-74
2023/09/30 05:55:53;;;;;;;0.10;0.10;;;12.90;99.90;;;;;;5009738;28;20053;-74
2023/09/30 05:58:19;;;;;;;0.15;0.15;;;12.80;99.90;;;;;;5005975;28;20045;-74
2023/09/30 06:00:45;;;;;;;0.10;0.10;;;12.90;99.90;;;;;;5013425;28;20037;-74
2023/09/30 06:03:11;;;;;;;0.10;0.10;;;12.90;99.90;;;;;;5010524;28;20059;-74
2023/09/30 06:05:43;;;;;;;0.10;0.10;;;12.90;99.90;;;;;;5004595;28;20552;-74
2023/09/30 06:08:15;;;;;;;0.10;0.10;;;12.80;99.90;;;;;;5010280;28;20493;-74
2023/09/30 06:10:45;;;;;;;0.10;0.10;;;12.80;99.90;;;;;;5004644;28;20081;-74
2023/09/30 06:13:12;;;;;;;0.15;0.15;;;12.90;99.90;;;;;;4997378;28;20053;-74
2023/09/30 06:15:42;;;;;;;0.15;0.15;;;12.90;99.90;;;;;;5014030;28;20111;-74
2023/09/30 06:18:09;;;;;;;0.20;0.20;;;12.90;99.90;;;;;;5008130;28;20072;-74
2023/09/30 06:20:35;;;;;;;0.20;0.20;;;12.90;99.90;;;;;;5013352;28;20329;-74
2023/09/30 06:23:01;;;;;;;0.17;0.17;;;12.90;99.90;;;;;;5010283;28;20049;-74
2023/09/30 06:25:27;;;;;;;0.20;0.20;;;12.90;99.90;;;;;;5010995;28;20041;-75
2023/09/30 06:27:57;;;;;;;0.10;0.10;;;12.80;99.90;;;;;;5008121;28;20045;-74
2023/09/30 06:30:29;;;;;;;0.10;0.10;;;12.90;99.90;;;;;;5005642;28;20053;-74
2023/09/30 06:33:00;;;;;;;0.10;0.10;;;12.90;99.90;;;;;;5004372;28;20386;-74
2023/09/30 06:35:37;;;;;;;0.10;0.10;;;12.90;99.90;;;;;;5010606;28;20397;-74
2023/09/30 06:38:03;;;;;;;0.20;0.20;;;12.90;99.90;;;;;;5009105;28;20045;-73
2023/09/30 06:40:28;;;;;;;0.10;0.10;;;13.00;99.90;;;;;;5008100;28;20528;-73
2023/09/30 06:42:54;;;;;;;0.20;0.20;;;12.90;99.90;;;;;;5009332;28;20129;-73
2023/09/30 06:45:21;;;;;;;0.10;0.10;;;12.90;99.90;;;;;;5012003;28;20068;-73
2023/09/30 06:47:47;;;;;;;0.10;0.10;;;13.00;99.90;;;;;;5012656;28;20050;-73
2023/09/30 06:50:16;;;;;;;0.13;0.13;;;13.00;99.90;;;;;;5009292;28;20405;-73
2023/09/30 06:52:45;;;;;;;0.10;0.10;;;13.00;99.90;;;;;;5006688;28;20054;-73
2023/09/30 06:55:13;;;;;;;0.10;0.10;;;13.10;99.90;;;;;;5007984;28;20049;-73
2023/09/30 06:57:40;;;;;;;0.10;0.10;;;13.10;99.90;;;;;;4998050;28;20053;-75
2023/09/30 07:00:13;;;;;;;0.10;0.10;;;13.10;99.90;;;;;;5005729;28;20053;-73
2023/09/30 07:02:40;;;;;;;0.10;0.10;;;13.20;99.90;;;;;;5006708;28;20148;-73
2023/09/30 07:05:10;;;;;;;0.20;0.20;;;13.20;99.90;;;;;;5001658;28;20049;-73
2023/09/30 07:07:36;;;;;;;0.20;0.20;;;13.30;99.90;;;;;;5004917;28;20096;-73
2023/09/30 07:10:06;;;;;;;0.10;0.10;;;13.30;99.90;;;;;;5010403;28;20112;-73
2023/09/30 07:12:35;;;;;;;0.10;0.10;;;13.30;99.90;;;;;;5006103;28;20049;-73
2023/09/30 07:15:04;;;;;;;0.10;0.10;;;13.40;99.90;;;;;;5008279;28;20473;-73
2023/09/30 07:17:30;;;;;;;0.10;0.10;;;13.50;99.90;;;;;;5006349;28;20741;-73
2023/09/30 07:19:56;;;;;;;0.10;0.10;;;13.50;99.90;;;;;;5004562;28;20045;-74
2023/09/30 07:22:22;;;;;;;0.10;0.10;;;13.60;99.90;;;;;;5008379;28;20057;-73
2023/09/30 07:24:47;;;;;;;0.20;0.20;;;13.60;99.90;;;;;;5011750;28;20034;-73
2023/09/30 07:27:13;;;;;;;0.10;0.10;;;13.70;99.90;;;;;;4995335;28;20042;-73
2023/09/30 07:29:39;;;;;;;0.10;0.10;;;13.70;99.90;;;;;;5008009;28;20038;-73
2023/09/30 07:32:07;;;;;;;0.20;0.20;;;13.80;99.90;;;;;;5008640;28;20081;-73
2023/09/30 07:34:33;;;;;;;0.10;0.10;;;13.90;99.90;;;;;;5008401;28;20457;-73
2023/09/30 07:36:58;;;;;;;0.10;0.10;;;13.90;99.90;;;;;;5008607;28;20058;-74
2023/09/30 07:39:24;;;;;;;0.10;0.10;;;13.90;99.90;;;;;;5004244;28;20402;-74
2023/09/30 07:41:50;;;;;;;0.17;0.17;;;14.00;99.90;;;;;;5009714;28;20046;-73
2023/09/30 07:44:15;;;;;;;0.10;0.10;;;14.00;99.90;;;;;;5009496;28;20081;-74
2023/09/30 07:46:41;;;;;;;0.17;0.17;;;14.00;99.90;;;;;;5000293;28;20058;-74
2023/09/30 07:49:10;;;;;;;0.13;0.13;;;14.10;99.90;;;;;;5014477;28;20042;-74
2023/09/30 07:51:35;;;;;;;0.10;0.10;;;14.10;99.90;;;;;;5028954;28;20516;-74
2023/09/30 07:54:01;;;;;;;0.20;0.20;;;14.20;99.90;;;;;;5014122;28;20045;-74
2023/09/30 07:56:27;;;;;;;0.20;0.20;;;14.20;99.90;;;;;;5002215;28;20056;-74
2023/09/30 07:58:53;;;;;;;0.20;0.20;;;14.30;99.90;;;;;;5004352;28;20121;-74
2023/09/30 08:01:19;;;;;;;0.20;0.20;;;14.30;99.90;;;;;;5008586;28;20521;-74
2023/09/30 08:03:45;;;;;;;0.10;0.10;;;14.30;99.90;;;;;;4996911;28;20043;-74
2023/09/30 08:06:11;;;;;;;0.10;0.10;;;14.40;99.90;;;;;;5005950;28;20542;-73
2023/09/30 08:08:36;;;;;;;0.10;0.10;;;14.40;99.90;;;;;;5001071;28;20050;-74
2023/09/30 08:11:02;;;;;;;0.10;0.10;;;14.50;99.90;;;;;;5004817;28;20393;-74
2023/09/30 08:13:32;;;;;;;0.13;0.13;;;14.60;99.90;;;;;;5008554;28;20061;-74
2023/09/30 08:15:58;;;;;;;0.10;0.10;;;14.60;99.90;;;;;;5008173;28;20049;-74
2023/09/30 08:18:23;;;;;;;0.20;0.20;;;14.70;99.90;;;;;;5007154;28;20052;-73
2023/09/30 08:20:49;;;;;;;0.10;0.10;;;14.80;99.90;;;;;;5005863;28;20077;-73
2023/09/30 08:23:15;;;;;;;0.20;0.20;;;14.80;99.90;;;;;;5004429;28;20096;-73
2023/09/30 08:25:41;;;;;;;0.10;0.10;;;14.80;99.90;;;;;;5008051;28;20049;-74
2023/09/30 08:28:09;;;;;;;0.10;0.10;;;14.90;99.90;;;;;;5002407;28;20038;-74
2023/09/30 08:30:35;;;;;;;0.10;0.10;;;15.00;99.90;;;;;;5009362;28;20057;-74
2023/09/30 08:33:03;;;;;;;0.20;0.20;;;15.00;99.90;;;;;;5008268;28;20338;-74
2023/09/30 08:35:29;;;;;;;0.10;0.10;;;15.10;99.90;;;;;;5008867;28;20052;-74
2023/09/30 08:37:55;;;;;;;0.20;0.20;;;15.20;99.90;;;;;;5005881;28;20046;-74
2023/09/30 08:40:21;;;;;;;0.10;0.10;;;15.20;99.90;;;;;;5008756;28;20073;-74
2023/09/30 08:42:52;;;;;;;0.20;0.20;;;15.30;99.90;;;;;;4989791;28;20076;-74
2023/09/30 08:45:18;;;;;;;0.20;0.20;;;15.30;99.90;;;;;;4991581;28;20728;-74
2023/09/30 08:47:46;;;;;;;0.10;0.10;;;15.40;99.90;;;;;;5001820;28;20069;-75
2023/09/30 08:50:13;;;;;;;0.13;0.13;;;15.50;99.90;;;;;;5009661;28;20073;-75
2023/09/30 08:52:41;;;;;;;0.10;0.10;;;15.50;99.90;;;;;;5013409;28;20456;-74
2023/09/30 08:55:08;;;;;;;0.10;0.10;;;15.60;99.90;;;;;;5012108;28;20285;-75
2023/09/30 08:57:40;;;;;;;0.20;0.20;;;15.70;99.90;;;;;;5009419;28;20136;-74
2023/09/30 09:00:07;;;;;;;0.20;0.20;;;15.80;99.90;;;;;;5010854;28;20045;-74
2023/09/30 09:02:35;;;;;;;0.13;0.13;;;15.90;99.90;;;;;;5011831;28;20064;-74
2023/09/30 09:05:02;;;;;;;0.10;0.10;;;15.90;99.90;;;;;;5005788;28;20682;-74
2023/09/30 09:07:27;;;;;;;0.10;0.10;;;16.00;99.90;;;;;;5000397;28;20046;-74
2023/09/30 09:10:15;;;;;;;0.10;0.10;;;16.10;99.90;;;;;;4999346;28;20038;-74
2023/09/30 09:12:42;;;;;;;0.20;0.20;;;16.10;99.90;;;;;;5014204;28;20046;-74
2023/09/30 09:15:19;;;;;;;0.10;0.10;;;16.20;99.90;;;;;;5000871;28;20134;-74
2023/09/30 09:17:45;;;;;;;0.20;0.20;;;16.30;99.90;;;;;;5002723;28;20049;-73
2023/09/30 09:20:20;;;;;;;0.10;0.10;;;16.40;99.90;;;;;;5014135;28;20482;-73
2023/09/30 09:22:47;;;;;;;0.17;0.17;;;16.50;99.90;;;;;;5015562;28;20037;-73
2023/09/30 09:25:13;;;;;;;0.20;0.20;;;16.60;99.90;;;;;;5015157;28;20084;-73
2023/09/30 09:27:39;;;;;;;0.20;0.20;;;16.60;99.90;;;;;;5014775;28;20505;-73
2023/09/30 09:30:15;;;;;;;0.20;0.20;;;16.70;99.90;;;;;;5013886;28;20084;-73
2023/09/30 09:33:03;;;;;;;0.20;0.20;;;16.80;99.90;;;;;;5013384;28;20049;-73
2023/09/30 09:35:30;;;;;;;0.15;0.15;;;16.90;99.90;;;;;;5002780;28;20489;-72
2023/09/30 09:38:03;;;;;;;0.13;0.13;;;16.90;99.90;;;;;;5015401;28;20060;-73
2023/09/30 09:40:37;;;;;;;0.25;0.25;;;17.00;99.90;;;;;;5014070;28;20049;-73
2023/09/30 09:43:05;;;;;;;0.20;0.20;;;17.10;99.90;;;;;;5014750;28;20049;-73
2023/09/30 09:45:33;;;;;;;0.20;0.20;;;17.10;99.90;;;;;;5012942;28;20099;-72
2023/09/30 09:47:59;;;;;;;0.10;0.10;;;17.20;99.90;;;;;;5011770;28;20059;-72
2023/09/30 09:50:25;;;;;;;0.20;0.20;;;17.30;99.90;;;;;;5014266;28;20136;-72
2023/09/30 09:52:59;;;;;;;0.20;0.20;;;17.30;99.90;;;;;;5032318;28;20456;-72
2023/09/30 09:55:25;;;;;;;0.17;0.17;;;17.40;99.90;;;;;;5013968;28;20351;-72
2023/09/30 09:57:51;;;;;;;0.20;0.20;;;17.50;99.90;;;;;;5011709;28;20044;-73
2023/09/30 10:00:23;;;;;;;0.10;0.10;;;17.60;99.90;;;;;;5008178;28;20064;-73
2023/09/30 10:02:50;;;;;;;0.10;0.10;;;17.60;99.90;;;;;;5013363;28;20049;-73
2023/09/30 10:05:17;;;;;;;0.20;0.20;;;17.70;99.90;;;;;;5011107;28;20049;-73
2023/09/30 10:08:06;;;;;;;0.20;0.20;;;17.80;99.90;;;;;;5008635;28;20053;-74
2023/09/30 10:10:37;;;;;;;0.20;0.20;;;17.90;99.90;;;;;;5000531;28;20045;-74
2023/09/30 10:13:03;;;;;;;0.20;0.20;;;17.90;99.90;;;;;;5006774;28;20053;-73
2023/09/30 10:15:30;;;;;;;0.20;0.20;;;17.90;99.90;;;;;;4997145;28;20517;-73
2023/09/30 10:18:10;;;;;;;0.20;0.20;;;17.80;99.90;;;;;;5014065;28;20152;-74
2023/09/30 10:20:38;;;;;;;0.10;0.10;;;17.80;99.90;;;;;;5013706;28;20041;-74
2023/09/30 10:23:24;;;;;;;0.20;0.20;;;17.80;99.90;;;;;;5013781;28;20045;-74
2023/09/30 10:25:57;;;;;;;0.10;0.10;;;17.80;99.90;;;;;;5009631;28;20055;-73
2023/09/30 10:28:44;;;;;;;0.20;0.20;;;17.90;99.90;;;;;;5011660;28;20049;-74
2023/09/30 10:31:19;;;;;;;0.10;0.10;;;17.90;99.90;;;;;;5013060;28;20049;-74
2023/09/30 10:34:00;;;;;;;0.13;0.13;;;17.90;99.90;;;;;;5007735;28;20061;-73
2023/09/30 10:36:40;;;;;;;0.20;0.20;;;17.90;99.90;;;;;;5012756;28;20485;-74
2023/09/30 10:39:13;;;;;;;0.20;0.20;;;18.00;99.90;;;;;;5011106;28;20053;-74
2023/09/30 10:41:39;;;;;;;0.20;0.20;;;18.00;99.90;;;;;;5007413;28;20037;-73
2023/09/30 10:44:26;;;;;;;0.20;0.20;;;18.00;99.90;;;;;;5013503;28;20477;-74
2023/09/30 10:47:00;;;;;;;0.20;0.20;;;18.10;99.90;;;;;;5013599;28;20497;-74
2023/09/30 10:49:25;;;;;;;0.10;0.10;;;18.10;99.90;;;;;;5030007;28;20087;-74
2023/09/30 10:51:56;;;;;;;0.20;0.20;;;18.10;99.90;;;;;;5010530;28;20045;-73
2023/09/30 10:54:26;;;;;;;0.20;0.20;;;18.10;99.90;;;;;;5009610;28;20551;-73
2023/09/30 10:56:52;;;;;;;0.20;0.20;;;18.20;99.90;;;;;;5010772;28;20398;-74
2023/09/30 10:59:23;;;;;;;0.20;0.20;;;18.20;99.90;;;;;;4996282;28;20050;-74
2023/09/30 11:01:50;;;;;;;0.20;0.20;;;18.30;99.90;;;;;;5009863;28;20045;-74
2023/09/30 11:04:17;;;;;;;0.20;0.20;;;18.40;99.90;;;;;;5013090;28;20086;-74
2023/09/30 11:06:43;;;;;;;0.20;0.20;;;18.60;99.90;;;;;;5010381;28;20060;-74
2023/09/30 11:09:12;;;;;;;0.20;0.20;;;18.80;99.90;;;;;;5023877;28;20041;-74
2023/09/30 11:11:43;;;;;;;0.10;0.10;;;18.90;99.90;;;;;;4991659;28;20061;-74
2023/09/30 11:14:26;;;;;;;0.20;0.20;;;19.00;99.90;;;;;;5000140;28;20057;-74
2023/09/30 11:16:53;;;;;;;0.20;0.20;;;19.10;99.90;;;;;;5009161;28;20046;-74
2023/09/30 11:19:23;;;;;;;0.20;0.20;;;19.10;99.90;;;;;;5002974;28;20136;-73
2023/09/30 11:21:51;;;;;;;0.20;0.20;;;19.10;99.90;;;;;;5010582;28;20050;-73
2023/09/30 11:24:17;;;;;;;0.20;0.20;;;19.10;99.90;;;;;;5009568;28;20038;-74
2023/09/30 11:26:44;;;;;;;0.20;0.20;;;19.00;99.90;;;;;;5009056;28;20144;-74
2023/09/30 11:29:17;;;;;;;0.20;0.20;;;18.90;99.90;;;;;;5009312;28;20401;-74
2023/09/30 11:31:47;;;;;;;0.20;0.20;;;18.90;99.90;;;;;;5008585;28;20038;-73
2023/09/30 11:34:19;;;;;;;0.20;0.20;;;18.80;99.90;;;;;;5008043;28;20061;-73
2023/09/30 11:36:54;;;;;;;0.20;0.20;;;18.70;99.90;;;;;;5008415;28;20044;-73
2023/09/30 11:39:28;;;;;;;0.20;0.20;;;18.70;99.90;;;;;;5009068;28;20441;-73
2023/09/30 11:41:57;;;;;;;0.20;0.20;;;18.60;99.90;;;;;;5009749;28;20490;-73
2023/09/30 11:44:25;;;;;;;0.20;0.20;;;18.60;99.90;;;;;;5008612;28;20136;-73
2023/09/30 11:46:54;;;;;;;0.20;0.20;;;18.50;99.90;;;;;;5008804;28;20429;-73
2023/09/30 11:49:30;;;;;;;0.20;0.20;;;18.50;99.90;;;;;;5008839;28;20046;-73
2023/09/30 11:51:58;;;;;;;0.20;0.20;;;18.40;99.90;;;;;;5009194;28;20386;-73
2023/09/30 11:54:32;;;;;;;0.20;0.20;;;18.40;99.90;;;;;;5008149;28;20494;-73
2023/09/30 11:57:04;;;;;;;0.20;0.20;;;18.30;99.90;;;;;;5009186;28;20054;-73
2023/09/30 11:59:31;;;;;;;0.20;0.20;;;18.30;99.90;;;;;;5008567;28;20427;-73
2023/09/30 12:01:58;;;;;;;0.20;0.20;;;18.20;99.90;;;;;;5008623;28;20042;-74
2023/09/30 12:04:24;;;;;;;0.10;0.10;;;18.10;99.90;;;;;;5008817;28;20038;-74
2023/09/30 12:06:50;;;;;;;0.17;0.17;;;18.10;99.90;;;;;;5009135;28;20072;-73
2023/09/30 12:09:16;;;;;;;0.20;0.20;;;18.00;99.90;;;;;;5008107;28;20046;-74
2023/09/30 12:11:45;;;;;;;0.20;0.20;;;18.00;99.90;;;;;;5005944;28;20054;-73
2023/09/30 12:14:12;;;;;;;0.20;0.20;;;18.00;99.90;;;;;;5009625;28;20042;-74
2023/09/30 12:16:38;;;;;;;0.20;0.20;;;18.00;99.90;;;;;;5007770;28;20508;-74
2023/09/30 12:19:08;;;;;;;0.20;0.20;;;18.00;99.90;;;;;;5008866;28;20053;-73
2023/09/30 12:21:34;;;;;;;0.20;0.20;;;18.00;99.90;;;;;;5007128;28;20040;-73
2023/09/30 12:24:01;;;;;;;0.20;0.20;;;18.00;99.90;;;;;;5008972;28;20052;-74
2023/09/30 12:26:27;;;;;;;0.20;0.20;;;18.00;99.90;;;;;;5009054;28;20041;-74
2023/09/30 12:28:53;;;;;;;0.10;0.10;;;18.00;99.90;;;;;;5007952;28;20038;-73
2023/09/30 12:31:20;;;;;;;0.20;0.20;;;18.10;99.90;;;;;;5008230;28;20125;-73
2023/09/30 12:33:50;;;;;;;0.10;0.10;;;18.10;99.90;;;;;;4997321;28;20703;-73
2023/09/30 12:36:16;;;;;;;0.20;0.20;;;18.20;99.90;;;;;;5007068;28;20398;-74
2023/09/30 12:38:42;;;;;;;0.20;0.20;;;18.40;99.90;;;;;;5001172;28;20108;-73
2023/09/30 12:41:08;;;;;;;0.20;0.20;;;18.70;99.90;;;;;;4989296;28;20509;-74
2023/09/30 12:43:34;;;;;;;0.20;0.20;;;19.10;99.90;;;;;;4993503;28;20038;-74
2023/09/30 12:45:59;;;;;;;0.20;0.20;;;19.40;99.90;;;;;;5008335;28;20184;-74
2023/09/30 12:48:25;;;;;;;0.20;0.20;;;19.60;99.90;;;;;;4996465;28;20042;-74
2023/09/30 12:50:51;;;;;;;0.20;0.20;;;19.80;99.90;;;;;;5003256;28;20048;-74